sensor_id;sensor_type;location;lat;lon;timestamp;temperature;humidity
5118;DHT22;2578;51.622;7.046;2023-03-23T00:00:06;11.30;99.90
5118;DHT22;2578;51.622;7.046;2023-03-23T00:02:32;11.30;99.90
5118;DHT22;2578;51.622;7.046;2023-03-23T00:05:01;11.30;99.90
5118;DHT22;2578;51.622;7.046;2023-03-23T00:07:28;11.30;99.90
5118;DHT22;2578;51.622;7.046;2023-03-23T00:09:54;11.30;99.90
5118;DHT22;2578;51.622;7.046;2023-03-23T00:12:22;11.40;99.90
5118;DHT22;2578;51.622;7.046;2023-03-23T00:14:59;11.50;99.90
5118;DHT22;2578;51.622;7.046;2023-03-23T00:17:26;11.50;99.90
5118;DHT22;2578;51.622;7.046;2023-03-23T00:19:52;11.50;94.70
5118;DHT22;2578;51.622;7.046;2023-03-23T00:22:18;11.50;92.10
5118;DHT22;2578;51.622;7.046;2023-03-23T00:24:47;11.50;67.90
5118;DHT22;2578;51.622;7.046;2023-03-23T00:27:16;11.60;75.50
5118;DHT22;2578;51.622;7.046;2023-03-23T00:29:42;11.60;65.70
5118;DHT22;2578;51.622;7.046;2023-03-23T00:32:10;11.60;58.30
5118;DHT22;2578;51.622;7.046;2023-03-23T00:34:40;11.60;40.00
5118;DHT22;2578;51.622;7.046;2023-03-23T00:37:06;11.70;45.50
5118;DHT22;2578;51.622;7.046;2023-03-23T00:39:33;11.70;38.60
5118;DHT22;2578;51.622;7.046;2023-03-23T00:41:59;11.70;30.80
5118;DHT22;2578;51.622;7.046;2023-03-23T00:44:28;11.80;15.80
5118;DHT22;2578;51.622;7.046;2023-03-23T00:46:54;11.80;19.50
5118;DHT22;2578;51.622;7.046;2023-03-23T00:49:22;11.80;15.80
5118;DHT22;2578;51.622;7.046;2023-03-23T00:51:50;11.90;12.20
5118;DHT22;2578;51.622;7.046;2023-03-23T00:54:16;11.80;3.20
5118;DHT22;2578;51.622;7.046;2023-03-23T00:56:42;11.90;8.90
5118;DHT22;2578;51.622;7.046;2023-03-23T00:59:08;11.90;5.90
5118;DHT22;2578;51.622;7.046;2023-03-23T01:01:34;12.00;4.30
5118;DHT22;2578;51.622;7.046;2023-03-23T01:04:01;12.00;1.00
5118;DHT22;2578;51.622;7.046;2023-03-23T01:06:35;11.90;1.20
5118;DHT22;2578;51.622;7.046;2023-03-23T01:09:09;12.00;1.00
5118;DHT22;2578;51.622;7.046;2023-03-23T01:11:35;12.00;5.90
5118;DHT22;2578;51.622;7.046;2023-03-23T01:14:01;12.00;1.00
5118;DHT22;2578;51.622;7.046;2023-03-23T01:16:27;12.10;1.00
5118;DHT22;2578;51.622;7.046;2023-03-23T01:18:53;12.10;1.00
5118;DHT22;2578;51.622;7.046;2023-03-23T01:21:19;12.10;1.00
5118;DHT22;2578;51.622;7.046;2023-03-23T01:23:46;12.10;1.00
5118;DHT22;2578;51.622;7.046;2023-03-23T01:26:18;12.10;1.00
5118;DHT22;2578;51.622;7.046;2023-03-23T01:28:44;12.20;1.00
5118;DHT22;2578;51.622;7.046;2023-03-23T01:31:12;12.30;1.00
5118;DHT22;2578;51.622;7.046;2023-03-23T01:33:39;12.20;1.00
5118;DHT22;2578;51.622;7.046;2023-03-23T01:36:17;12.20;1.00
5118;DHT22;2578;51.622;7.046;2023-03-23T01:38:45;12.30;1.00
5118;DHT22;2578;51.622;7.046;2023-03-23T01:41:11;12.30;1.00
5118;DHT22;2578;51.622;7.046;2023-03-23T01:44:03;12.40;1.00
5118;DHT22;2578;51.622;7.046;2023-03-23T01:46:32;12.40;1.00
5118;DHT22;2578;51.622;7.046;2023-03-23T01:49:07;12.40;1.00
5118;DHT22;2578;51.622;7.046;2023-03-23T01:51:37;12.40;1.00
5118;DHT22;2578;51.622;7.046;2023-03-23T01:54:07;12.40;1.00
5118;DHT22;2578;51.622;7.046;2023-03-23T01:56:49;13.10;1.00
5118;DHT22;2578;51.622;7.046;2023-03-23T01:59:15;12.50;1.00
5118;DHT22;2578;51.622;7.046;2023-03-23T02:01:42;12.50;1.00
5118;DHT22;2578;51.622;7.046;2023-03-23T02:04:12;12.50;1.00
5118;DHT22;2578;51.622;7.046;2023-03-23T02:06:39;12.50;1.00
5118;DHT22;2578;51.622;7.046;2023-03-23T02:09:05;12.60;1.00
5118;DHT22;2578;51.622;7.046;2023-03-23T02:11:31;12.50;1.00
5118;DHT22;2578;51.622;7.046;2023-03-23T02:13:57;12.60;1.00
5118;DHT22;2578;51.622;7.046;2023-03-23T02:36:00;12.30;1.00
5118;DHT22;2578;51.622;7.046;2023-03-23T02:38:35;12.50;1.00
5118;DHT22;2578;51.622;7.046;2023-03-23T02:41:03;12.40;1.00
5118;DHT22;2578;51.622;7.046;2023-03-23T02:43:35;12.40;1.00
5118;DHT22;2578;51.622;7.046;2023-03-23T02:46:05;12.40;1.00
5118;DHT22;2578;51.622;7.046;2023-03-23T02:48:33;12.50;1.00
5118;DHT22;2578;51.622;7.046;2023-03-23T02:51:00;12.40;1.00
5118;DHT22;2578;51.622;7.046;2023-03-23T02:53:29;12.30;1.00
5118;DHT22;2578;51.622;7.046;2023-03-23T02:55:57;12.30;1.00
5118;DHT22;2578;51.622;7.046;2023-03-23T02:58:23;12.30;1.00
5118;DHT22;2578;51.622;7.046;2023-03-23T03:00:50;11.80;1.00
5118;DHT22;2578;51.622;7.046;2023-03-23T03:03:19;12.20;1.00
5118;DHT22;2578;51.622;7.046;2023-03-23T03:06:25;12.30;1.00
5118;DHT22;2578;51.622;7.046;2023-03-23T03:08:55;12.20;1.00
5118;DHT22;2578;51.622;7.046;2023-03-23T03:11:23;12.20;1.00
5118;DHT22;2578;51.622;7.046;2023-03-23T03:16:52;12.20;1.00
5118;DHT22;2578;51.622;7.046;2023-03-23T03:19:31;12.10;1.00
5118;DHT22;2578;51.622;7.046;2023-03-23T03:21:58;12.10;1.00
5118;DHT22;2578;51.622;7.046;2023-03-23T03:24:27;12.00;1.00
5118;DHT22;2578;51.622;7.046;2023-03-23T03:26:55;12.10;1.00
5118;DHT22;2578;51.622;7.046;2023-03-23T03:29:44;12.10;1.00
5118;DHT22;2578;51.622;7.046;2023-03-23T03:32:14;12.10;1.00
5118;DHT22;2578;51.622;7.046;2023-03-23T03:34:41;12.20;1.00
5118;DHT22;2578;51.622;7.046;2023-03-23T03:37:08;12.20;1.00
5118;DHT22;2578;51.622;7.046;2023-03-23T03:39:37;12.20;1.00
5118;DHT22;2578;51.622;7.046;2023-03-23T03:42:06;12.20;1.00
5118;DHT22;2578;51.622;7.046;2023-03-23T03:44:33;12.20;1.00
5118;DHT22;2578;51.622;7.046;2023-03-23T03:46:59;12.20;1.00
5118;DHT22;2578;51.622;7.046;2023-03-23T03:49:25;12.20;1.00
5118;DHT22;2578;51.622;7.046;2023-03-23T03:51:52;12.20;1.00
5118;DHT22;2578;51.622;7.046;2023-03-23T03:54:17;12.20;1.00
5118;DHT22;2578;51.622;7.046;2023-03-23T03:56:43;12.10;1.00
5118;DHT22;2578;51.622;7.046;2023-03-23T03:59:09;12.10;1.00
5118;DHT22;2578;51.622;7.046;2023-03-23T04:01:37;12.10;1.00
5118;DHT22;2578;51.622;7.046;2023-03-23T04:04:03;12.20;1.00
5118;DHT22;2578;51.622;7.046;2023-03-23T04:06:31;12.20;1.00
5118;DHT22;2578;51.622;7.046;2023-03-23T04:08:58;12.20;1.00
5118;DHT22;2578;51.622;7.046;2023-03-23T04:11:24;12.10;1.00
5118;DHT22;2578;51.622;7.046;2023-03-23T04:13:51;12.20;1.00
5118;DHT22;2578;51.622;7.046;2023-03-23T04:16:17;13.70;1.00
5118;DHT22;2578;51.622;7.046;2023-03-23T04:18:43;12.20;1.00
5118;DHT22;2578;51.622;7.046;2023-03-23T04:21:08;12.20;1.00
5118;DHT22;2578;51.622;7.046;2023-03-23T04:23:35;12.30;1.00
5118;DHT22;2578;51.622;7.046;2023-03-23T04:26:01;12.20;1.00
5118;DHT22;2578;51.622;7.046;2023-03-23T04:28:29;12.30;1.00
5118;DHT22;2578;51.622;7.046;2023-03-23T04:30:55;12.30;1.00
5118;DHT22;2578;51.622;7.046;2023-03-23T04:33:25;12.30;1.00
5118;DHT22;2578;51.622;7.046;2023-03-23T04:35:56;12.30;1.00
5118;DHT22;2578;51.622;7.046;2023-03-23T04:38:23;12.30;1.00
5118;DHT22;2578;51.622;7.046;2023-03-23T04:40:51;12.30;1.00
5118;DHT22;2578;51.622;7.046;2023-03-23T04:43:18;12.30;1.00
5118;DHT22;2578;51.622;7.046;2023-03-23T04:45:47;12.30;1.00
5118;DHT22;2578;51.622;7.046;2023-03-23T04:48:17;13.40;1.00
5118;DHT22;2578;51.622;7.046;2023-03-23T04:50:44;12.30;1.00
5118;DHT22;2578;51.622;7.046;2023-03-23T04:53:09;12.30;1.00
5118;DHT22;2578;51.622;7.046;2023-03-23T04:55:36;12.30;1.00
5118;DHT22;2578;51.622;7.046;2023-03-23T04:58:06;12.40;1.00
5118;DHT22;2578;51.622;7.046;2023-03-23T05:00:34;12.40;1.00
5118;DHT22;2578;51.622;7.046;2023-03-23T05:03:00;12.40;1.00
5118;DHT22;2578;51.622;7.046;2023-03-23T05:05:27;12.40;1.00
5118;DHT22;2578;51.622;7.046;2023-03-23T05:07:54;12.40;1.00
5118;DHT22;2578;51.622;7.046;2023-03-23T05:10:20;12.40;1.00
5118;DHT22;2578;51.622;7.046;2023-03-23T05:12:46;12.40;1.00
5118;DHT22;2578;51.622;7.046;2023-03-23T05:15:13;12.40;1.00
5118;DHT22;2578;51.622;7.046;2023-03-23T05:17:39;12.40;1.00
5118;DHT22;2578;51.622;7.046;2023-03-23T05:20:13;12.40;1.00
5118;DHT22;2578;51.622;7.046;2023-03-23T05:22:42;12.40;1.00
5118;DHT22;2578;51.622;7.046;2023-03-23T05:25:09;12.40;1.00
5118;DHT22;2578;51.622;7.046;2023-03-23T05:27:37;12.40;1.00
5118;DHT22;2578;51.622;7.046;2023-03-23T05:30:04;12.40;1.00
5118;DHT22;2578;51.622;7.046;2023-03-23T05:32:30;12.40;1.00
5118;DHT22;2578;51.622;7.046;2023-03-23T05:35:00;12.40;1.00
5118;DHT22;2578;51.622;7.046;2023-03-23T05:37:27;12.50;1.00
5118;DHT22;2578;51.622;7.046;2023-03-23T05:39:54;12.60;1.00
5118;DHT22;2578;51.622;7.046;2023-03-23T05:42:24;12.50;1.00
5118;DHT22;2578;51.622;7.046;2023-03-23T05:44:50;12.50;1.00
5118;DHT22;2578;51.622;7.046;2023-03-23T05:47:16;12.50;1.00
5118;DHT22;2578;51.622;7.046;2023-03-23T05:49:42;12.50;1.00
5118;DHT22;2578;51.622;7.046;2023-03-23T05:52:08;12.50;1.00
5118;DHT22;2578;51.622;7.046;2023-03-23T05:54:33;12.50;1.00
5118;DHT22;2578;51.622;7.046;2023-03-23T05:57:02;12.50;1.00
5118;DHT22;2578;51.622;7.046;2023-03-23T05:59:28;12.50;1.00
5118;DHT22;2578;51.622;7.046;2023-03-23T06:01:54;13.40;1.00
5118;DHT22;2578;51.622;7.046;2023-03-23T06:04:20;12.60;1.00
5118;DHT22;2578;51.622;7.046;2023-03-23T06:06:52;12.60;1.00
5118;DHT22;2578;51.622;7.046;2023-03-23T06:09:18;12.60;1.00
5118;DHT22;2578;51.622;7.046;2023-03-23T06:11:44;12.60;1.00
5118;DHT22;2578;51.622;7.046;2023-03-23T06:14:10;11.30;1.00
5118;DHT22;2578;51.622;7.046;2023-03-23T06:16:37;12.50;1.00
5118;DHT22;2578;51.622;7.046;2023-03-23T06:19:02;12.60;1.00
5118;DHT22;2578;51.622;7.046;2023-03-23T06:21:30;12.50;1.00
5118;DHT22;2578;51.622;7.046;2023-03-23T06:23:57;12.60;1.00
5118;DHT22;2578;51.622;7.046;2023-03-23T06:26:28;12.60;1.00
5118;DHT22;2578;51.622;7.046;2023-03-23T06:28:56;12.60;1.00
5118;DHT22;2578;51.622;7.046;2023-03-23T06:31:23;12.60;1.00
5118;DHT22;2578;51.622;7.046;2023-03-23T06:33:49;12.50;1.00
5118;DHT22;2578;51.622;7.046;2023-03-23T06:36:15;12.60;1.00
5118;DHT22;2578;51.622;7.046;2023-03-23T06:38:42;12.60;1.00
5118;DHT22;2578;51.622;7.046;2023-03-23T06:41:08;12.60;1.00
5118;DHT22;2578;51.622;7.046;2023-03-23T06:43:34;12.70;1.00
5118;DHT22;2578;51.622;7.046;2023-03-23T06:46:01;12.60;1.00
5118;DHT22;2578;51.622;7.046;2023-03-23T06:48:28;12.70;1.00
5118;DHT22;2578;51.622;7.046;2023-03-23T06:50:53;12.70;1.00
5118;DHT22;2578;51.622;7.046;2023-03-23T06:53:19;12.90;1.00
5118;DHT22;2578;51.622;7.046;2023-03-23T06:55:46;12.90;1.00
5118;DHT22;2578;51.622;7.046;2023-03-23T06:58:12;12.90;1.00
5118;DHT22;2578;51.622;7.046;2023-03-23T07:00:38;12.90;1.00
5118;DHT22;2578;51.622;7.046;2023-03-23T07:05:33;13.00;1.00
5118;DHT22;2578;51.622;7.046;2023-03-23T07:07:59;12.90;1.00
5118;DHT22;2578;51.622;7.046;2023-03-23T07:10:25;12.90;1.00
5118;DHT22;2578;51.622;7.046;2023-03-23T07:12:50;12.90;1.00
5118;DHT22;2578;51.622;7.046;2023-03-23T07:15:16;13.00;1.00
5118;DHT22;2578;51.622;7.046;2023-03-23T07:17:42;12.90;1.00
5118;DHT22;2578;51.622;7.046;2023-03-23T07:20:08;13.00;1.00
5118;DHT22;2578;51.622;7.046;2023-03-23T07:22:34;13.00;1.00
5118;DHT22;2578;51.622;7.046;2023-03-23T07:25:00;13.00;1.00
5118;DHT22;2578;51.622;7.046;2023-03-23T07:27:26;13.00;1.00
5118;DHT22;2578;51.622;7.046;2023-03-23T07:29:52;13.00;1.00
5118;DHT22;2578;51.622;7.046;2023-03-23T07:32:18;13.00;1.00
5118;DHT22;2578;51.622;7.046;2023-03-23T07:34:44;13.10;1.00
5118;DHT22;2578;51.622;7.046;2023-03-23T07:37:09;13.10;1.00
5118;DHT22;2578;51.622;7.046;2023-03-23T07:39:35;13.10;1.00
5118;DHT22;2578;51.622;7.046;2023-03-23T07:42:01;13.10;1.00
5118;DHT22;2578;51.622;7.046;2023-03-23T07:44:27;13.10;1.00
5118;DHT22;2578;51.622;7.046;2023-03-23T07:46:52;13.00;1.00
5118;DHT22;2578;51.622;7.046;2023-03-23T07:49:18;13.00;1.00
5118;DHT22;2578;51.622;7.046;2023-03-23T07:51:45;13.10;1.00
5118;DHT22;2578;51.622;7.046;2023-03-23T07:54:11;13.20;1.00
5118;DHT22;2578;51.622;7.046;2023-03-23T07:56:37;13.10;1.00
5118;DHT22;2578;51.622;7.046;2023-03-23T07:59:05;13.10;1.00
5118;DHT22;2578;51.622;7.046;2023-03-23T08:01:31;13.20;1.00
5118;DHT22;2578;51.622;7.046;2023-03-23T08:03:57;13.20;1.00
5118;DHT22;2578;51.622;7.046;2023-03-23T08:06:24;13.30;1.00
5118;DHT22;2578;51.622;7.046;2023-03-23T08:08:50;13.40;1.00
5118;DHT22;2578;51.622;7.046;2023-03-23T08:11:17;13.40;1.00
5118;DHT22;2578;51.622;7.046;2023-03-23T08:13:44;13.30;1.00
5118;DHT22;2578;51.622;7.046;2023-03-23T08:16:10;13.30;1.00
5118;DHT22;2578;51.622;7.046;2023-03-23T08:18:37;13.40;1.00
5118;DHT22;2578;51.622;7.046;2023-03-23T08:21:04;13.40;1.00
5118;DHT22;2578;51.622;7.046;2023-03-23T08:23:31;13.60;1.00
5118;DHT22;2578;51.622;7.046;2023-03-23T08:25:57;13.60;1.00
5118;DHT22;2578;51.622;7.046;2023-03-23T08:28:22;13.50;1.00
5118;DHT22;2578;51.622;7.046;2023-03-23T08:30:48;13.60;1.00
5118;DHT22;2578;51.622;7.046;2023-03-23T08:33:15;13.50;1.00
5118;DHT22;2578;51.622;7.046;2023-03-23T08:35:41;13.50;1.00
5118;DHT22;2578;51.622;7.046;2023-03-23T08:38:09;13.50;1.00
5118;DHT22;2578;51.622;7.046;2023-03-23T08:40:35;13.60;1.00
5118;DHT22;2578;51.622;7.046;2023-03-23T08:43:02;13.50;1.00
5118;DHT22;2578;51.622;7.046;2023-03-23T08:45:27;13.50;1.00
5118;DHT22;2578;51.622;7.046;2023-03-23T08:47:53;13.70;1.00
5118;DHT22;2578;51.622;7.046;2023-03-23T08:50:23;13.70;1.00
5118;DHT22;2578;51.622;7.046;2023-03-23T08:52:49;13.60;1.00
5118;DHT22;2578;51.622;7.046;2023-03-23T08:55:16;13.20;1.00
5118;DHT22;2578;51.622;7.046;2023-03-23T08:57:43;13.10;1.00
5118;DHT22;2578;51.622;7.046;2023-03-23T09:00:12;13.10;1.00
5118;DHT22;2578;51.622;7.046;2023-03-23T09:02:46;13.00;1.00
5118;DHT22;2578;51.622;7.046;2023-03-23T09:05:13;13.00;1.00
5118;DHT22;2578;51.622;7.046;2023-03-23T09:07:43;13.00;1.00
5118;DHT22;2578;51.622;7.046;2023-03-23T09:10:09;13.10;1.00
5118;DHT22;2578;51.622;7.046;2023-03-23T09:12:36;13.10;1.00
5118;DHT22;2578;51.622;7.046;2023-03-23T09:15:04;13.10;1.00
5118;DHT22;2578;51.622;7.046;2023-03-23T09:17:46;13.10;1.00
5118;DHT22;2578;51.622;7.046;2023-03-23T09:20:13;13.20;1.00
5118;DHT22;2578;51.622;7.046;2023-03-23T09:22:42;13.10;1.00
5118;DHT22;2578;51.622;7.046;2023-03-23T09:25:11;13.20;1.00
5118;DHT22;2578;51.622;7.046;2023-03-23T09:27:38;13.20;1.00
5118;DHT22;2578;51.622;7.046;2023-03-23T09:30:09;13.30;1.00
5118;DHT22;2578;51.622;7.046;2023-03-23T09:32:36;13.30;1.00
5118;DHT22;2578;51.622;7.046;2023-03-23T09:35:04;13.10;1.00
5118;DHT22;2578;51.622;7.046;2023-03-23T09:37:32;12.50;1.00
5118;DHT22;2578;51.622;7.046;2023-03-23T09:39:58;10.90;1.00
5118;DHT22;2578;51.622;7.046;2023-03-23T09:50:55;10.10;62.90
5118;DHT22;2578;51.622;7.046;2023-03-23T09:53:27;10.10;51.80
5118;DHT22;2578;51.622;7.046;2023-03-23T09:56:05;10.10;63.60
5118;DHT22;2578;51.622;7.046;2023-03-23T09:58:41;10.10;51.30
5118;DHT22;2578;51.622;7.046;2023-03-23T10:03:41;10.30;25.80
5118;DHT22;2578;51.622;7.046;2023-03-23T10:06:15;10.20;15.40
5118;DHT22;2578;51.622;7.046;2023-03-23T10:09:03;10.40;23.90
5118;DHT22;2578;51.622;7.046;2023-03-23T10:11:56;10.40;21.90
5118;DHT22;2578;51.622;7.046;2023-03-23T10:14:44;10.50;3.70
5118;DHT22;2578;51.622;7.046;2023-03-23T10:17:19;10.60;9.50
5118;DHT22;2578;51.622;7.046;2023-03-23T10:20:05;10.50;17.60
5118;DHT22;2578;51.622;7.046;2023-03-23T10:22:40;10.40;1.00
5118;DHT22;2578;51.622;7.046;2023-03-23T10:25:14;10.50;1.00
5118;DHT22;2578;51.622;7.046;2023-03-23T10:30:34;10.40;5.00
5118;DHT22;2578;51.622;7.046;2023-03-23T10:35:56;10.40;5.00
5118;DHT22;2578;51.622;7.046;2023-03-23T10:38:32;10.50;12.90
5118;DHT22;2578;51.622;7.046;2023-03-23T10:41:04;10.60;5.80
5118;DHT22;2578;51.622;7.046;2023-03-23T10:43:32;10.60;1.00
5118;DHT22;2578;51.622;7.046;2023-03-23T10:46:16;10.60;3.00
5118;DHT22;2578;51.622;7.046;2023-03-23T10:48:49;10.70;1.00
5118;DHT22;2578;51.622;7.046;2023-03-23T10:51:21;10.80;1.00
5118;DHT22;2578;51.622;7.046;2023-03-23T10:53:56;11.00;1.00
5118;DHT22;2578;51.622;7.046;2023-03-23T10:56:25;10.90;1.00
5118;DHT22;2578;51.622;7.046;2023-03-23T10:58:53;11.00;1.00
5118;DHT22;2578;51.622;7.046;2023-03-23T11:01:27;12.50;1.00
5118;DHT22;2578;51.622;7.046;2023-03-23T11:03:54;11.30;1.00
5118;DHT22;2578;51.622;7.046;2023-03-23T11:06:24;11.30;1.00
5118;DHT22;2578;51.622;7.046;2023-03-23T11:08:57;11.10;1.00
5118;DHT22;2578;51.622;7.046;2023-03-23T11:11:32;11.10;1.00
5118;DHT22;2578;51.622;7.046;2023-03-23T11:14:17;11.10;1.00
5118;DHT22;2578;51.622;7.046;2023-03-23T11:16:55;11.10;1.00
5118;DHT22;2578;51.622;7.046;2023-03-23T11:19:29;11.20;1.00
5118;DHT22;2578;51.622;7.046;2023-03-23T11:24:42;11.50;1.00
5118;DHT22;2578;51.622;7.046;2023-03-23T11:27:09;11.50;1.00
5118;DHT22;2578;51.622;7.046;2023-03-23T11:29:47;11.60;1.00
5118;DHT22;2578;51.622;7.046;2023-03-23T11:32:15;11.70;1.00
5118;DHT22;2578;51.622;7.046;2023-03-23T11:34:45;11.40;1.00
5118;DHT22;2578;51.622;7.046;2023-03-23T11:42:46;11.20;8.20
5118;DHT22;2578;51.622;7.046;2023-03-23T11:47:51;11.50;35.60
5118;DHT22;2578;51.622;7.046;2023-03-23T11:50:26;11.60;50.10
5118;DHT22;2578;51.622;7.046;2023-03-23T11:53:57;11.60;32.50
5118;DHT22;2578;51.622;7.046;2023-03-23T11:56:19;11.60;41.10
5118;DHT22;2578;51.622;7.046;2023-03-23T11:58:47;11.90;36.60
5118;DHT22;2578;51.622;7.046;2023-03-23T12:01:35;11.50;27.20
5118;DHT22;2578;51.622;7.046;2023-03-23T12:07:49;11.60;25.30
5118;DHT22;2578;51.622;7.046;2023-03-23T12:34:17;11.80;1.70
5118;DHT22;2578;51.622;7.046;2023-03-23T12:45:17;12.10;16.40
5118;DHT22;2578;51.622;7.046;2023-03-23T12:47:52;12.30;21.80
5118;DHT22;2578;51.622;7.046;2023-03-23T12:53:17;12.50;8.10
5118;DHT22;2578;51.622;7.046;2023-03-23T12:58:36;12.80;14.70
5118;DHT22;2578;51.622;7.046;2023-03-23T13:01:20;13.00;11.80
5118;DHT22;2578;51.622;7.046;2023-03-23T13:04:10;13.20;1.00
5118;DHT22;2578;51.622;7.046;2023-03-23T13:06:38;13.30;4.70
5118;DHT22;2578;51.622;7.046;2023-03-23T13:09:32;13.40;3.80
5118;DHT22;2578;51.622;7.046;2023-03-23T13:12:03;13.70;11.90
5118;DHT22;2578;51.622;7.046;2023-03-23T13:15:48;13.50;1.00
5118;DHT22;2578;51.622;7.046;2023-03-23T13:17:54;13.50;1.00
5118;DHT22;2578;51.622;7.046;2023-03-23T13:23:12;13.40;1.00
5118;DHT22;2578;51.622;7.046;2023-03-23T13:26:07;13.70;1.00
5118;DHT22;2578;51.622;7.046;2023-03-23T13:31:25;12.60;1.00
5118;DHT22;2578;51.622;7.046;2023-03-23T13:34:18;14.30;1.00
5118;DHT22;2578;51.622;7.046;2023-03-23T13:39:27;14.70;1.00
5118;DHT22;2578;51.622;7.046;2023-03-23T13:47:28;14.90;1.00
5118;DHT22;2578;51.622;7.046;2023-03-23T13:57:55;14.70;1.00
5118;DHT22;2578;51.622;7.046;2023-03-23T14:06:00;14.20;1.00
5118;DHT22;2578;51.622;7.046;2023-03-23T14:10:59;14.40;1.00
5118;DHT22;2578;51.622;7.046;2023-03-23T14:14:01;14.20;1.00
5118;DHT22;2578;51.622;7.046;2023-03-23T14:16:40;14.30;1.00
5118;DHT22;2578;51.622;7.046;2023-03-23T14:19:29;14.70;1.00
5118;DHT22;2578;51.622;7.046;2023-03-23T14:21:57;15.00;1.00
5118;DHT22;2578;51.622;7.046;2023-03-23T14:24:28;14.90;1.00
5118;DHT22;2578;51.622;7.046;2023-03-23T14:27:15;15.10;1.00
5118;DHT22;2578;51.622;7.046;2023-03-23T14:29:41;15.10;1.00
5118;DHT22;2578;51.622;7.046;2023-03-23T14:32:13;15.00;1.00
5118;DHT22;2578;51.622;7.046;2023-03-23T14:34:40;14.70;1.00
5118;DHT22;2578;51.622;7.046;2023-03-23T14:37:11;14.70;1.00
5118;DHT22;2578;51.622;7.046;2023-03-23T14:42:09;15.30;1.00
5118;DHT22;2578;51.622;7.046;2023-03-23T14:44:44;15.90;1.00
5118;DHT22;2578;51.622;7.046;2023-03-23T14:49:47;16.00;1.00
5118;DHT22;2578;51.622;7.046;2023-03-23T14:52:17;15.70;1.00
5118;DHT22;2578;51.622;7.046;2023-03-23T14:54:44;15.90;1.00
5118;DHT22;2578;51.622;7.046;2023-03-23T14:57:27;15.90;1.00
5118;DHT22;2578;51.622;7.046;2023-03-23T14:59:54;15.80;1.00
5118;DHT22;2578;51.622;7.046;2023-03-23T15:02:25;15.40;1.00
5118;DHT22;2578;51.622;7.046;2023-03-23T15:04:59;15.10;1.00
5118;DHT22;2578;51.622;7.046;2023-03-23T15:07:35;15.40;1.00
5118;DHT22;2578;51.622;7.046;2023-03-23T15:10:05;15.70;1.00
5118;DHT22;2578;51.622;7.046;2023-03-23T15:12:31;15.80;1.00
5118;DHT22;2578;51.622;7.046;2023-03-23T15:15:00;15.60;1.00
5118;DHT22;2578;51.622;7.046;2023-03-23T15:17:30;15.40;1.00
5118;DHT22;2578;51.622;7.046;2023-03-23T15:19:56;15.40;1.00
5118;DHT22;2578;51.622;7.046;2023-03-23T15:22:28;15.20;1.00
5118;DHT22;2578;51.622;7.046;2023-03-23T15:25:11;15.50;1.00
5118;DHT22;2578;51.622;7.046;2023-03-23T15:27:42;15.70;1.00
5118;DHT22;2578;51.622;7.046;2023-03-23T15:32:44;16.00;1.00
5118;DHT22;2578;51.622;7.046;2023-03-23T15:35:18;16.20;1.00
5118;DHT22;2578;51.622;7.046;2023-03-23T15:37:51;16.20;1.00
5118;DHT22;2578;51.622;7.046;2023-03-23T15:40:19;15.80;1.00
5118;DHT22;2578;51.622;7.046;2023-03-23T15:42:46;15.20;1.00
5118;DHT22;2578;51.622;7.046;2023-03-23T15:47:44;15.10;1.00
5118;DHT22;2578;51.622;7.046;2023-03-23T15:52:51;14.90;1.00
5118;DHT22;2578;51.622;7.046;2023-03-23T15:55:28;14.80;1.00
5118;DHT22;2578;51.622;7.046;2023-03-23T15:57:57;14.70;1.00
5118;DHT22;2578;51.622;7.046;2023-03-23T16:00:25;14.70;1.00
5118;DHT22;2578;51.622;7.046;2023-03-23T16:03:01;14.90;1.00
5118;DHT22;2578;51.622;7.046;2023-03-23T16:05:28;14.90;1.00
5118;DHT22;2578;51.622;7.046;2023-03-23T16:07:54;15.10;1.00
5118;DHT22;2578;51.622;7.046;2023-03-23T16:10:22;15.90;1.00
5118;DHT22;2578;51.622;7.046;2023-03-23T16:12:48;15.30;1.00
5118;DHT22;2578;51.622;7.046;2023-03-23T16:15:14;15.10;1.00
5118;DHT22;2578;51.622;7.046;2023-03-23T16:17:41;15.10;1.00
5118;DHT22;2578;51.622;7.046;2023-03-23T16:20:21;15.10;1.00
5118;DHT22;2578;51.622;7.046;2023-03-23T16:22:47;15.10;1.00
5118;DHT22;2578;51.622;7.046;2023-03-23T16:25:14;15.00;1.00
5118;DHT22;2578;51.622;7.046;2023-03-23T16:27:41;14.90;1.00
5118;DHT22;2578;51.622;7.046;2023-03-23T16:30:22;14.90;1.00
5118;DHT22;2578;51.622;7.046;2023-03-23T16:32:48;14.70;1.00
5118;DHT22;2578;51.622;7.046;2023-03-23T16:35:14;14.50;1.00
5118;DHT22;2578;51.622;7.046;2023-03-23T16:37:51;14.50;1.00
5118;DHT22;2578;51.622;7.046;2023-03-23T16:40:18;14.50;1.00
5118;DHT22;2578;51.622;7.046;2023-03-23T16:42:44;14.50;1.00
5118;DHT22;2578;51.622;7.046;2023-03-23T16:45:11;14.60;1.00
5118;DHT22;2578;51.622;7.046;2023-03-23T16:47:37;14.50;1.00
5118;DHT22;2578;51.622;7.046;2023-03-23T16:50:05;14.60;1.00
5118;DHT22;2578;51.622;7.046;2023-03-23T16:52:37;14.50;1.00
5118;DHT22;2578;51.622;7.046;2023-03-23T16:55:03;14.30;1.00
5118;DHT22;2578;51.622;7.046;2023-03-23T16:57:29;14.30;1.00
5118;DHT22;2578;51.622;7.046;2023-03-23T16:59:56;14.30;1.00
5118;DHT22;2578;51.622;7.046;2023-03-23T17:02:23;14.20;1.00
5118;DHT22;2578;51.622;7.046;2023-03-23T17:04:49;14.30;1.00
5118;DHT22;2578;51.622;7.046;2023-03-23T17:07:15;14.30;1.00
5118;DHT22;2578;51.622;7.046;2023-03-23T17:09:41;14.30;1.00
5118;DHT22;2578;51.622;7.046;2023-03-23T17:12:06;14.40;1.00
5118;DHT22;2578;51.622;7.046;2023-03-23T17:14:32;14.10;1.00
5118;DHT22;2578;51.622;7.046;2023-03-23T17:16:58;14.20;1.00
5118;DHT22;2578;51.622;7.046;2023-03-23T17:19:24;14.20;1.00
5118;DHT22;2578;51.622;7.046;2023-03-23T17:21:50;14.20;1.00
5118;DHT22;2578;51.622;7.046;2023-03-23T17:24:16;14.10;1.00
5118;DHT22;2578;51.622;7.046;2023-03-23T17:26:43;14.10;1.00
5118;DHT22;2578;51.622;7.046;2023-03-23T17:29:08;14.00;1.00
5118;DHT22;2578;51.622;7.046;2023-03-23T17:31:34;14.00;1.00
5118;DHT22;2578;51.622;7.046;2023-03-23T17:34:00;13.90;1.00
5118;DHT22;2578;51.622;7.046;2023-03-23T17:36:26;13.90;1.00
5118;DHT22;2578;51.622;7.046;2023-03-23T17:38:52;13.90;1.00
5118;DHT22;2578;51.622;7.046;2023-03-23T17:41:17;13.90;1.00
5118;DHT22;2578;51.622;7.046;2023-03-23T17:43:46;13.80;1.00
5118;DHT22;2578;51.622;7.046;2023-03-23T17:46:12;13.70;1.00
5118;DHT22;2578;51.622;7.046;2023-03-23T17:48:38;13.70;1.00
5118;DHT22;2578;51.622;7.046;2023-03-23T17:51:04;13.80;1.00
5118;DHT22;2578;51.622;7.046;2023-03-23T17:53:31;13.70;1.00
5118;DHT22;2578;51.622;7.046;2023-03-23T17:55:57;13.70;1.00
5118;DHT22;2578;51.622;7.046;2023-03-23T17:58:23;13.80;1.00
5118;DHT22;2578;51.622;7.046;2023-03-23T18:00:53;13.60;1.00
5118;DHT22;2578;51.622;7.046;2023-03-23T18:03:19;13.40;1.00
5118;DHT22;2578;51.622;7.046;2023-03-23T18:05:45;13.50;1.00
5118;DHT22;2578;51.622;7.046;2023-03-23T18:08:11;13.40;1.00
5118;DHT22;2578;51.622;7.046;2023-03-23T18:10:38;13.40;1.00
5118;DHT22;2578;51.622;7.046;2023-03-23T18:13:05;13.30;1.00
5118;DHT22;2578;51.622;7.046;2023-03-23T18:15:32;15.00;1.00
5118;DHT22;2578;51.622;7.046;2023-03-23T18:17:59;13.40;1.00
5118;DHT22;2578;51.622;7.046;2023-03-23T18:20:25;13.00;1.00
5118;DHT22;2578;51.622;7.046;2023-03-23T18:22:51;12.90;1.00
5118;DHT22;2578;51.622;7.046;2023-03-23T18:25:17;12.70;1.00
5118;DHT22;2578;51.622;7.046;2023-03-23T18:27:43;12.70;1.00
5118;DHT22;2578;51.622;7.046;2023-03-23T18:30:09;12.50;1.00
5118;DHT22;2578;51.622;7.046;2023-03-23T18:32:39;12.40;1.00
5118;DHT22;2578;51.622;7.046;2023-03-23T18:35:06;12.30;1.00
5118;DHT22;2578;51.622;7.046;2023-03-23T18:37:33;12.30;1.00
5118;DHT22;2578;51.622;7.046;2023-03-23T18:40:00;12.20;1.00
5118;DHT22;2578;51.622;7.046;2023-03-23T18:42:26;12.10;1.00
5118;DHT22;2578;51.622;7.046;2023-03-23T18:44:55;12.00;1.00
5118;DHT22;2578;51.622;7.046;2023-03-23T18:47:21;12.00;1.00